F/V Magali — FGIW — position and weather

sailwx.info

Track history (hours):
 
Tides and Currents Weather Stations Pressure Air Temp Water Temp Dewpoint Dewpoint Depression Visibility Wind Speed Wind Dir Waves Ship Positions

F/V Magali

Last reported at 2018-Jun-25 06:58 UTC. Time now 2018-Jun-25 09:54 UTC.
Position N 46°30' W 002°56'.

Length 18 m; draft 3.5 m.

Type: Fishing. MMSI: 228135000.

Date/timePositionNaut miles runAvg speedWind from/ knotsBaromVisibWave heightAir tempDewpointWater temp
2018-Jun-25 06:58N 46°30' W 002°56'1 3.2
2018-Jun-25 06:30N 46°31' W 002°56'2 3.2
2018-Jun-25 05:53N 46°33' W 002°58'3 3.4
2018-Jun-25 05:06N 46°36' W 002°58'1 3.5
2018-Jun-25 04:56N 46°36' W 002°58'2 3.4
2018-Jun-25 04:27N 46°38' W 002°59'2 3.2
2018-Jun-25 03:54N 46°39' W 003°01'1 3.3
2018-Jun-25 03:29N 46°40' W 003°03'7 2.9
2018-Jun-25 01:14N 46°42' W 003°12'1 3.3
2018-Jun-25 00:59N 46°41' W 003°12'2 3.4
2018-Jun-25 00:30N 46°40' W 003°12'38 0.9
2018-Jun-23 04:06N 47°17' W 003°03'1 9.1
2018-Jun-23 03:59N 47°18' W 003°03'4 8.2
2018-Jun-23 03:30N 47°22' W 003°05'4 8.1
2018-Jun-23 03:01N 47°25' W 003°09'4 8.3
2018-Jun-23 02:30N 47°29' W 003°12'4 8.5
2018-Jun-23 02:00N 47°32' W 003°15'4 8.8
2018-Jun-23 01:30N 47°36' W 003°19'4 9.0
2018-Jun-23 01:01N 47°40' W 003°22'4 7.2
2018-Jun-23 00:30N 47°44' W 003°22'0 0.0
2018-Jun-23 00:00N 47°44' W 003°22'0 0.2
2018-Jun-22 23:30N 47°44' W 003°22'0 0.0
2018-Jun-22 23:01N 47°44' W 003°22'0 0.0
2018-Jun-22 22:30N 47°44' W 003°22'1 1.2
2018-Jun-22 22:00N 47°43' W 003°22'5 9.2
2018-Jun-22 21:30N 47°39' W 003°22'4 8.3
2018-Jun-22 21:00N 47°35' W 003°25'4 8.4
2018-Jun-22 20:30N 47°33' W 003°30'3 5.5
2018-Jun-22 20:00N 47°31' W 003°33'2 3.2
2018-Jun-22 19:30N 47°30' W 003°35'2 3.6
2018-Jun-22 19:00N 47°29' W 003°38'2 3.7
2018-Jun-22 18:30N 47°28' W 003°40'2 3.6
2018-Jun-22 18:00N 47°27' W 003°42'2 3.6
2018-Jun-22 17:29N 47°26' W 003°45'2 3.5
2018-Jun-22 16:58N 47°26' W 003°47'2 3.1
2018-Jun-22 16:25N 47°27' W 003°50'1 1.9
2018-Jun-22 15:42N 47°25' W 003°49'2 3.2
2018-Jun-22 15:12N 47°25' W 003°47'1 3.5
2018-Jun-22 14:58N 47°26' W 003°47'4 3.4
2018-Jun-22 13:46N 47°28' W 003°53'5 0.9
2018-Jun-22 07:43N 47°23' W 003°56'4 3.0
2018-Jun-22 06:23N 47°26' W 003°53'2 2.9
2018-Jun-22 05:42N 47°28' W 003°53'1 3.2
2018-Jun-22 05:28N 47°29' W 003°54'2 3.0
2018-Jun-22 04:56N 47°29' W 003°56'2 3.0
2018-Jun-22 04:13N 47°30' W 003°59'1 2.9
2018-Jun-22 04:00N 47°30' W 004°00'6 1.0
2018-Jun-21 21:43N 47°23' W 004°01'4 0.9
2018-Jun-21 17:15N 47°26' W 003°56'0 0.0
2018-Jun-21 10:59N 47°26' W 003°56'3 3.2
2018-Jun-21 10:04N 47°24' W 003°58'1 3.0
2018-Jun-21 09:48N 47°23' W 003°58'0 1.0
2018-Jun-21 09:27N 47°23' W 003°58'2 3.1
2018-Jun-21 08:52N 47°21' W 003°57'1 3.1
2018-Jun-21 08:25N 47°20' W 003°57'1 2.9
2018-Jun-21 07:54N 47°19' W 003°55'2 3.3
2018-Jun-21 07:22N 47°21' W 003°55'2 3.3
2018-Jun-21 06:45N 47°23' W 003°54'1 3.4
2018-Jun-21 06:28N 47°24' W 003°54'2 3.5
2018-Jun-21 05:58N 47°26' W 003°53'2 3.4
2018-Jun-21 05:29N 47°27' W 003°52'2 4.9
2018-Jun-21 05:00N 47°29' W 003°50'4 8.9
2018-Jun-21 04:30N 47°32' W 003°45'5 9.6
2018-Jun-21 04:00N 47°35' W 003°40'5 9.5
2018-Jun-21 03:31N 47°38' W 003°34'5 9.6
2018-Jun-21 03:00N 47°40' W 003°28'5 9.3
2018-Jun-21 02:30N 47°43' W 003°22'1 1.9
2018-Jun-21 02:01N 47°44' W 003°22'0 0.2
2018-Jun-21 01:30N 47°44' W 003°22'0 0.3
2018-Jun-21 01:00N 47°44' W 003°22'4 7.3
2018-Jun-21 00:30N 47°41' W 003°25'4 8.6
2018-Jun-21 00:01N 47°39' W 003°31'4 8.6
2018-Jun-20 23:30N 47°37' W 003°36'4 8.8
2018-Jun-20 23:00N 47°34' W 003°41'4 8.5
2018-Jun-20 22:30N 47°31' W 003°46'6 8.4
2018-Jun-20 21:49N 47°26' W 003°51'3 8.6
2018-Jun-20 21:30N 47°24' W 003°53'2 2.8
2018-Jun-20 20:51N 47°23' W 003°54'3 3.2
2018-Jun-20 19:54N 47°19' W 003°55'1 3.4
2018-Jun-20 19:30N 47°18' W 003°55'3 3.4
2018-Jun-20 18:30N 47°15' W 003°55'9 1.9
2018-Jun-20 13:31N 47°06' W 003°52'0 3.2
2018-Jun-20 13:30N 47°06' W 003°52'2 3.1
2018-Jun-20 12:42N 47°04' W 003°55'2 2.6
2018-Jun-20 11:49N 47°05' W 003°51'1 2.9
2018-Jun-20 11:27N 47°06' W 003°52'1 2.7
2018-Jun-20 10:56N 47°05' W 003°54'2 2.8
2018-Jun-20 10:16N 47°05' W 003°51'1 3.2
2018-Jun-20 09:56N 47°06' W 003°52'1 2.6
2018-Jun-20 09:28N 47°07' W 003°53'2 3.4
2018-Jun-20 08:54N 47°08' W 003°53'1 3.7
2018-Jun-20 08:30N 47°10' W 003°54'2 3.1
2018-Jun-20 07:59N 47°11' W 003°54'1 2.4
2018-Jun-20 07:27N 47°13' W 003°55'2 3.1
2018-Jun-20 06:57N 47°14' W 003°55'1 3.1
2018-Jun-20 06:29N 47°16' W 003°55'2 3.2
2018-Jun-20 05:42N 47°18' W 003°55'1 3.2
2018-Jun-20 05:30N 47°19' W 003°56'2 3.2
2018-Jun-20 05:00N 47°20' W 003°56'2 3.3
2018-Jun-20 04:27N 47°22' W 003°57'2 3.4
2018-Jun-20 04:00N 47°23' W 003°56'1 2.2
2018-Jun-20 03:30N 47°24' W 003°57'1 2.7
2018-Jun-20 03:00N 47°25' W 003°55'2 3.4
2018-Jun-20 02:30N 47°26' W 003°55'2 3.2
2018-Jun-20 02:00N 47°27' W 003°57'2 3.3
2018-Jun-20 01:25N 47°29' W 003°59'1 3.2
2018-Jun-20 01:00N 47°29' W 004°00'2 3.2
2018-Jun-20 00:30N 47°28' W 004°01'2 3.3
2018-Jun-19 23:59N 47°26' W 004°02'2 3.2
2018-Jun-19 23:29N 47°25' W 004°03'9 2.2
2018-Jun-19 19:24N 47°17' W 003°55'2 3.5
2018-Jun-19 18:51N 47°16' W 003°55'4 3.5
2018-Jun-19 17:44N 47°12' W 003°54'1 3.7
2018-Jun-19 17:27N 47°11' W 003°54'2 3.8
2018-Jun-19 17:00N 47°09' W 003°53'1 2.9
2018-Jun-19 16:30N 47°08' W 003°53'2 3.6
2018-Jun-19 15:50N 47°05' W 003°54'2 1.5
2018-Jun-19 14:47N 47°05' W 003°52'1 2.9
2018-Jun-19 14:20N 47°06' W 003°53'1 3.1
2018-Jun-19 13:59N 47°05' W 003°54'7 3.3
2018-Jun-19 11:56N 47°05' W 003°44'1 2.5
2018-Jun-19 11:30N 47°05' W 003°45'1 2.9
2018-Jun-19 11:00N 47°04' W 003°46'1 2.3
2018-Jun-19 10:28N 47°03' W 003°45'2 3.4
2018-Jun-19 09:59N 47°05' W 003°46'1 1.7
2018-Jun-19 09:08N 47°03' W 003°47'0 3.8
2018-Jun-19 09:00N 47°04' W 003°47'3 3.5
2018-Jun-19 08:12N 47°06' W 003°46'1 2.5
2018-Jun-19 07:52N 47°07' W 003°47'1 3.6
2018-Jun-19 07:30N 47°08' W 003°48'6 3.2
2018-Jun-19 05:31N 47°14' W 003°45'0 3.5
2018-Jun-19 05:30N 47°14' W 003°45'5 3.5
2018-Jun-19 04:05N 47°18' W 003°41'4 8.2
2018-Jun-19 03:39N 47°21' W 003°38'3 8.6
2018-Jun-19 03:18N 47°23' W 003°35'3 8.9
2018-Jun-19 02:59N 47°25' W 003°32'4 9.2
2018-Jun-19 02:30N 47°29' W 003°28'5 9.0
2018-Jun-19 02:00N 47°33' W 003°24'4 8.8
2018-Jun-19 01:30N 47°37' W 003°22'5 9.1
2018-Jun-19 01:00N 47°41' W 003°22'2 4.9
2018-Jun-19 00:30N 47°44' W 003°22'0 0.0
2018-Jun-19 00:00N 47°44' W 003°22'0 0.0
2018-Jun-18 23:30N 47°44' W 003°22'0 0.0
2018-Jun-18 23:00N 47°44' W 003°22'0 0.0
2018-Jun-18 22:30N 47°44' W 003°22'0 0.0
2018-Jun-18 22:00N 47°44' W 003°22'0 0.0
2018-Jun-18 21:30N 47°44' W 003°22'0 0.0
2018-Jun-18 21:00N 47°44' W 003°22'0 0.0
2018-Jun-18 20:30N 47°44' W 003°22'0 0.0
2018-Jun-18 20:00N 47°44' W 003°22'0 0.0
2018-Jun-18 19:30N 47°44' W 003°22'0 0.0
2018-Jun-18 19:01N 47°44' W 003°22'0 0.0
2018-Jun-18 18:30N 47°44' W 003°22'0 0.0
2018-Jun-18 18:00N 47°44' W 003°22'0 0.0
2018-Jun-18 17:31N 47°44' W 003°22'0 0.0
2018-Jun-18 17:00N 47°44' W 003°22'0 0.0
2018-Jun-18 16:30N 47°44' W 003°22'0 0.0
2018-Jun-18 16:00N 47°44' W 003°22'0 0.0
2018-Jun-18 15:30N 47°44' W 003°22'0 0.0
2018-Jun-18 15:00N 47°44' W 003°22'0 0.0
2018-Jun-18 14:30N 47°44' W 003°22'0 0.0
2018-Jun-18 14:00N 47°44' W 003°22'0 0.0
2018-Jun-18 13:30N 47°44' W 003°22'0 0.0
2018-Jun-18 13:00N 47°44' W 003°22'0 0.0
2018-Jun-18 12:30N 47°44' W 003°22'0 0.0
2018-Jun-18 12:00N 47°44' W 003°22'0 0.0
2018-Jun-18 11:30N 47°44' W 003°22'0 0.0
2018-Jun-18 11:00N 47°44' W 003°22'0 0.0
2018-Jun-18 10:30N 47°44' W 003°22'0 0.0
2018-Jun-18 10:00N 47°44' W 003°22'0 0.0
2018-Jun-18 09:30N 47°44' W 003°22'0 0.0
2018-Jun-18 09:00N 47°44' W 003°22'0 0.0
2018-Jun-18 08:30N 47°44' W 003°22'0 0.0
2018-Jun-18 08:00N 47°44' W 003°22'0 0.0
2018-Jun-18 07:30N 47°44' W 003°22'0 0.0
2018-Jun-18 07:00N 47°44' W 003°22'0 0.0
2018-Jun-18 06:30N 47°44' W 003°22'0 0.0
2018-Jun-18 06:00N 47°44' W 003°22'0 0.0
2018-Jun-18 05:30N 47°44' W 003°22'0 0.0
2018-Jun-18 05:00N 47°44' W 003°22'0 0.0
2018-Jun-18 04:30N 47°44' W 003°22'0 0.0
2018-Jun-18 04:00N 47°44' W 003°22'0 0.0
2018-Jun-18 03:30N 47°44' W 003°22'0 0.0
2018-Jun-18 03:00N 47°44' W 003°22'0 0.0
2018-Jun-18 02:31N 47°44' W 003°22'0 0.0
2018-Jun-18 02:00N 47°44' W 003°22'0 0.0
2018-Jun-18 01:30N 47°44' W 003°22'0 0.0
2018-Jun-18 01:00N 47°44' W 003°22'0 0.0
2018-Jun-18 00:30N 47°44' W 003°22'0 0.0
2018-Jun-18 00:00N 47°44' W 003°22'0 0.0
2018-Jun-17 23:30N 47°44' W 003°22'0 0.0
2018-Jun-17 23:00N 47°44' W 003°22'0 0.0
2018-Jun-17 22:30N 47°44' W 003°22'0 0.0
2018-Jun-17 22:00N 47°44' W 003°22'0 0.0
2018-Jun-17 21:30N 47°44' W 003°22'0 0.0
2018-Jun-17 21:00N 47°44' W 003°22'0 0.0
2018-Jun-17 20:30N 47°44' W 003°22'0 0.0
2018-Jun-17 20:00N 47°44' W 003°22'0 0.0
2018-Jun-17 19:30N 47°44' W 003°22'0 0.0
2018-Jun-17 19:00N 47°44' W 003°22'0 0.0
2018-Jun-17 18:30N 47°44' W 003°22'0 0.0
2018-Jun-17 18:00N 47°44' W 003°22'0 0.0
2018-Jun-17 17:30N 47°44' W 003°22'0 0.0
2018-Jun-17 17:01N 47°44' W 003°22'0 0.0
2018-Jun-17 16:30N 47°44' W 003°22'0 0.0
2018-Jun-17 16:00N 47°44' W 003°22'0 0.0
2018-Jun-17 15:31N 47°44' W 003°22'0 0.0
2018-Jun-17 15:00N 47°44' W 003°22'0 0.0
2018-Jun-17 14:30N 47°44' W 003°22'0 0.0
2018-Jun-17 14:00N 47°44' W 003°22'0 0.0
2018-Jun-17 13:30N 47°44' W 003°22'0 0.0
2018-Jun-17 13:00N 47°44' W 003°22'0 0.0
2018-Jun-17 12:30N 47°44' W 003°22'0 0.0
2018-Jun-17 12:01N 47°44' W 003°22'0 0.0
2018-Jun-17 11:30N 47°44' W 003°22'0 0.0
2018-Jun-17 11:00N 47°44' W 003°22'0 0.0
2018-Jun-17 10:30N 47°44' W 003°22'0 0.0
2018-Jun-17 10:00N 47°44' W 003°22'0 0.0
2018-Jun-17 09:30N 47°44' W 003°22'0 0.0
2018-Jun-17 09:00N 47°44' W 003°22'0 0.0
2018-Jun-17 08:30N 47°44' W 003°22'0 0.0
2018-Jun-17 08:01N 47°44' W 003°22'0 0.0
2018-Jun-17 07:31N 47°44' W 003°22'0 0.0
2018-Jun-17 07:00N 47°44' W 003°22'0 0.0
2018-Jun-17 06:31N 47°44' W 003°22'0 0.0
2018-Jun-17 06:00N 47°44' W 003°22'0 0.0
2018-Jun-17 05:30N 47°44' W 003°22'0 0.0
2018-Jun-17 05:00N 47°44' W 003°22'0 0.0
2018-Jun-17 04:30N 47°44' W 003°22'0 0.0
2018-Jun-17 04:00N 47°44' W 003°22'0 0.0
2018-Jun-17 03:31N 47°44' W 003°22'0 0.0
2018-Jun-17 03:00N 47°44' W 003°22'0 0.0
2018-Jun-17 02:30N 47°44' W 003°22'0 0.0
2018-Jun-17 02:00N 47°44' W 003°22'0 0.0
2018-Jun-17 01:31N 47°44' W 003°22'0 0.0
2018-Jun-17 01:01N 47°44' W 003°22'0 0.0
2018-Jun-17 00:30N 47°44' W 003°22'0 0.0
2018-Jun-17 00:00N 47°44' W 003°22'0 0.0
2018-Jun-16 23:31N 47°44' W 003°22'0 0.0
2018-Jun-16 23:00N 47°44' W 003°22'0 0.0
2018-Jun-16 22:31N 47°44' W 003°22'0 0.0
2018-Jun-16 22:00N 47°44' W 003°22'0 0.0
2018-Jun-16 21:30N 47°44' W 003°22'0 0.0
2018-Jun-16 21:00N 47°44' W 003°22'0 0.0
2018-Jun-16 20:31N 47°44' W 003°22'0 0.0
2018-Jun-16 20:00N 47°44' W 003°22'0 0.0
2018-Jun-16 19:30N 47°44' W 003°22'0 0.0
2018-Jun-16 19:00N 47°44' W 003°22'0 0.0
2018-Jun-16 18:30N 47°44' W 003°22'0 0.0
2018-Jun-16 18:00N 47°44' W 003°22'0 0.0
2018-Jun-16 17:31N 47°44' W 003°22'0 0.0
2018-Jun-16 17:00N 47°44' W 003°22'0 0.0
2018-Jun-16 16:30N 47°44' W 003°22'0 0.0
2018-Jun-16 16:00N 47°44' W 003°22'0 0.0
2018-Jun-16 15:30N 47°44' W 003°22'0 0.0
2018-Jun-16 15:01N 47°44' W 003°22'0 0.0
2018-Jun-16 14:30N 47°44' W 003°22'0 0.0
2018-Jun-16 14:00N 47°44' W 003°22'0 0.0
2018-Jun-16 13:30N 47°44' W 003°22'0 0.0
2018-Jun-16 13:00N 47°44' W 003°22'0 0.0
2018-Jun-16 12:30N 47°44' W 003°22'0 0.0
2018-Jun-16 12:00N 47°44' W 003°22'0 0.0
2018-Jun-16 11:30N 47°44' W 003°22'0 0.0
2018-Jun-16 11:00N 47°44' W 003°22'0 0.0
2018-Jun-16 10:31N 47°44' W 003°22'0 0.0
2018-Jun-16 10:00N 47°44' W 003°22'0 0.0
2018-Jun-16 09:30N 47°44' W 003°22'0 0.0
2018-Jun-16 09:00N 47°44' W 003°22'0 0.0
2018-Jun-16 08:30N 47°44' W 003°22'0 0.0
2018-Jun-16 08:00N 47°44' W 003°22'0 0.0
2018-Jun-16 07:30N 47°44' W 003°22'0 0.0
2018-Jun-16 07:00N 47°44' W 003°22'0 0.0
2018-Jun-16 06:30N 47°44' W 003°22'0 0.0
2018-Jun-16 06:00N 47°44' W 003°22'0 0.0
2018-Jun-16 05:30N 47°44' W 003°22'0 0.0
2018-Jun-16 05:00N 47°44' W 003°22'0 0.0
2018-Jun-16 04:30N 47°44' W 003°22'0 0.0
2018-Jun-16 04:01N 47°44' W 003°22'0 0.0
2018-Jun-16 03:30N 47°44' W 003°22'0 0.0
2018-Jun-16 03:01N 47°44' W 003°22'0 0.0
2018-Jun-16 02:31N 47°44' W 003°22'0 0.0
2018-Jun-16 02:00N 47°44' W 003°22'0 0.0
2018-Jun-16 01:30N 47°44' W 003°22'0 0.0
2018-Jun-16 01:01N 47°44' W 003°22'0 0.0
2018-Jun-16 00:30N 47°44' W 003°22'0 0.0
2018-Jun-16 00:00N 47°44' W 003°22'0 0.0
2018-Jun-15 23:30N 47°44' W 003°22'0 0.0
2018-Jun-15 23:01N 47°44' W 003°22'0 0.0
2018-Jun-15 22:30N 47°44' W 003°22'0 0.0
2018-Jun-15 22:00N 47°44' W 003°22'0 0.0
2018-Jun-15 21:30N 47°44' W 003°22'0 0.0
2018-Jun-15 21:00N 47°44' W 003°22'0 0.0
2018-Jun-15 20:30N 47°44' W 003°22'0 0.0
2018-Jun-15 20:00N 47°44' W 003°22'0 0.0
2018-Jun-15 19:31N 47°44' W 003°22'0 0.0
2018-Jun-15 19:00N 47°44' W 003°22'0 0.0
2018-Jun-15 18:31N 47°44' W 003°22'0 0.0
2018-Jun-15 18:00N 47°44' W 003°22'0 0.0
2018-Jun-15 17:30N 47°44' W 003°22'0 0.0
2018-Jun-15 17:00N 47°44' W 003°22'0 0.1
2018-Jun-15 16:30N 47°44' W 003°22'4 8.9
2018-Jun-15 16:00N 47°39' W 003°22'4 8.2
2018-Jun-15 15:30N 47°35' W 003°24'5 9.3
2018-Jun-15 15:00N 47°32' W 003°28'5 9.1
2018-Jun-15 14:30N 47°27' W 003°31'5 9.1
2018-Jun-15 13:59N 47°23' W 003°33'14 2.2
2018-Jun-15 07:26N 47°10' W 003°41'1 3.1
2018-Jun-15 07:00N 47°10' W 003°43'  
Track history (hours):
 
Tides and Currents Weather Stations Pressure Air Temp Water Temp Dewpoint Dewpoint Depression Visibility Wind Speed Wind Dir Waves Ship Positions

F/V Magali

Last reported at 2018-Jun-25 06:58 UTC. Time now 2018-Jun-25 09:54 UTC.
Position N 46°30' W 002°56'.

Length 18 m; draft 3.5 m.

Type: Fishing. MMSI: 228135000.

Date/timePositionNaut miles runAvg speedWind from/ knotsBaromVisibWave heightAir tempDewpointWater temp
2018-Jun-25 06:58N 46°30' W 002°56'1 3.2
2018-Jun-25 06:30N 46°31' W 002°56'2 3.2
2018-Jun-25 05:53N 46°33' W 002°58'3 3.4
2018-Jun-25 05:06N 46°36' W 002°58'1 3.5
2018-Jun-25 04:56N 46°36' W 002°58'2 3.4
2018-Jun-25 04:27N 46°38' W 002°59'2 3.2
2018-Jun-25 03:54N 46°39' W 003°01'1 3.3
2018-Jun-25 03:29N 46°40' W 003°03'7 2.9
2018-Jun-25 01:14N 46°42' W 003°12'1 3.3
2018-Jun-25 00:59N 46°41' W 003°12'2 3.4
2018-Jun-25 00:30N 46°40' W 003°12'38 0.9
2018-Jun-23 04:06N 47°17' W 003°03'1 9.1
2018-Jun-23 03:59N 47°18' W 003°03'4 8.2
2018-Jun-23 03:30N 47°22' W 003°05'4 8.1
2018-Jun-23 03:01N 47°25' W 003°09'4 8.3
2018-Jun-23 02:30N 47°29' W 003°12'4 8.5
2018-Jun-23 02:00N 47°32' W 003°15'4 8.8
2018-Jun-23 01:30N 47°36' W 003°19'4 9.0
2018-Jun-23 01:01N 47°40' W 003°22'4 7.2
2018-Jun-23 00:30N 47°44' W 003°22'0 0.0
2018-Jun-23 00:00N 47°44' W 003°22'0 0.2
2018-Jun-22 23:30N 47°44' W 003°22'0 0.0
2018-Jun-22 23:01N 47°44' W 003°22'0 0.0
2018-Jun-22 22:30N 47°44' W 003°22'1 1.2
2018-Jun-22 22:00N 47°43' W 003°22'5 9.2
2018-Jun-22 21:30N 47°39' W 003°22'4 8.3
2018-Jun-22 21:00N 47°35' W 003°25'4 8.4
2018-Jun-22 20:30N 47°33' W 003°30'3 5.5
2018-Jun-22 20:00N 47°31' W 003°33'2 3.2
2018-Jun-22 19:30N 47°30' W 003°35'2 3.6
2018-Jun-22 19:00N 47°29' W 003°38'2 3.7
2018-Jun-22 18:30N 47°28' W 003°40'2 3.6
2018-Jun-22 18:00N 47°27' W 003°42'2 3.6
2018-Jun-22 17:29N 47°26' W 003°45'2 3.5
2018-Jun-22 16:58N 47°26' W 003°47'2 3.1
2018-Jun-22 16:25N 47°27' W 003°50'1 1.9
2018-Jun-22 15:42N 47°25' W 003°49'2 3.2
2018-Jun-22 15:12N 47°25' W 003°47'1 3.5
2018-Jun-22 14:58N 47°26' W 003°47'4 3.4
2018-Jun-22 13:46N 47°28' W 003°53'5 0.9
2018-Jun-22 07:43N 47°23' W 003°56'4 3.0
2018-Jun-22 06:23N 47°26' W 003°53'2 2.9
2018-Jun-22 05:42N 47°28' W 003°53'1 3.2
2018-Jun-22 05:28N 47°29' W 003°54'2 3.0
2018-Jun-22 04:56N 47°29' W 003°56'2 3.0
2018-Jun-22 04:13N 47°30' W 003°59'1 2.9
2018-Jun-22 04:00N 47°30' W 004°00'6 1.0
2018-Jun-21 21:43N 47°23' W 004°01'4 0.9
2018-Jun-21 17:15N 47°26' W 003°56'0 0.0
2018-Jun-21 10:59N 47°26' W 003°56'3 3.2
2018-Jun-21 10:04N 47°24' W 003°58'1 3.0
2018-Jun-21 09:48N 47°23' W 003°58'0 1.0
2018-Jun-21 09:27N 47°23' W 003°58'2 3.1
2018-Jun-21 08:52N 47°21' W 003°57'1 3.1
2018-Jun-21 08:25N 47°20' W 003°57'1 2.9
2018-Jun-21 07:54N 47°19' W 003°55'2 3.3
2018-Jun-21 07:22N 47°21' W 003°55'2 3.3
2018-Jun-21 06:45N 47°23' W 003°54'1 3.4
2018-Jun-21 06:28N 47°24' W 003°54'2 3.5
2018-Jun-21 05:58N 47°26' W 003°53'2 3.4
2018-Jun-21 05:29N 47°27' W 003°52'2 4.9
2018-Jun-21 05:00N 47°29' W 003°50'4 8.9
2018-Jun-21 04:30N 47°32' W 003°45'5 9.6
2018-Jun-21 04:00N 47°35' W 003°40'5 9.5
2018-Jun-21 03:31N 47°38' W 003°34'5 9.6
2018-Jun-21 03:00N 47°40' W 003°28'5 9.3
2018-Jun-21 02:30N 47°43' W 003°22'1 1.9
2018-Jun-21 02:01N 47°44' W 003°22'0 0.2
2018-Jun-21 01:30N 47°44' W 003°22'0 0.3
2018-Jun-21 01:00N 47°44' W 003°22'4 7.3
2018-Jun-21 00:30N 47°41' W 003°25'4 8.6
2018-Jun-21 00:01N 47°39' W 003°31'4 8.6
2018-Jun-20 23:30N 47°37' W 003°36'4 8.8
2018-Jun-20 23:00N 47°34' W 003°41'4 8.5
2018-Jun-20 22:30N 47°31' W 003°46'6 8.4
2018-Jun-20 21:49N 47°26' W 003°51'3 8.6
2018-Jun-20 21:30N 47°24' W 003°53'2 2.8
2018-Jun-20 20:51N 47°23' W 003°54'3 3.2
2018-Jun-20 19:54N 47°19' W 003°55'1 3.4
2018-Jun-20 19:30N 47°18' W 003°55'3 3.4
2018-Jun-20 18:30N 47°15' W 003°55'9 1.9
2018-Jun-20 13:31N 47°06' W 003°52'0 3.2
2018-Jun-20 13:30N 47°06' W 003°52'2 3.1
2018-Jun-20 12:42N 47°04' W 003°55'2 2.6
2018-Jun-20 11:49N 47°05' W 003°51'1 2.9
2018-Jun-20 11:27N 47°06' W 003°52'1 2.7
2018-Jun-20 10:56N 47°05' W 003°54'2 2.8
2018-Jun-20 10:16N 47°05' W 003°51'1 3.2
2018-Jun-20 09:56N 47°06' W 003°52'1 2.6
2018-Jun-20 09:28N 47°07' W 003°53'2 3.4
2018-Jun-20 08:54N 47°08' W 003°53'1 3.7
2018-Jun-20 08:30N 47°10' W 003°54'2 3.1
2018-Jun-20 07:59N 47°11' W 003°54'1 2.4
2018-Jun-20 07:27N 47°13' W 003°55'2 3.1
2018-Jun-20 06:57N 47°14' W 003°55'1 3.1
2018-Jun-20 06:29N 47°16' W 003°55'2 3.2
2018-Jun-20 05:42N 47°18' W 003°55'1 3.2
2018-Jun-20 05:30N 47°19' W 003°56'2 3.2
2018-Jun-20 05:00N 47°20' W 003°56'2 3.3
2018-Jun-20 04:27N 47°22' W 003°57'2 3.4
2018-Jun-20 04:00N 47°23' W 003°56'1 2.2
2018-Jun-20 03:30N 47°24' W 003°57'1 2.7
2018-Jun-20 03:00N 47°25' W 003°55'2 3.4
2018-Jun-20 02:30N 47°26' W 003°55'2 3.2
2018-Jun-20 02:00N 47°27' W 003°57'2 3.3
2018-Jun-20 01:25N 47°29' W 003°59'1 3.2
2018-Jun-20 01:00N 47°29' W 004°00'2 3.2
2018-Jun-20 00:30N 47°28' W 004°01'2 3.3
2018-Jun-19 23:59N 47°26' W 004°02'2 3.2
2018-Jun-19 23:29N 47°25' W 004°03'9 2.2
2018-Jun-19 19:24N 47°17' W 003°55'2 3.5
2018-Jun-19 18:51N 47°16' W 003°55'4 3.5
2018-Jun-19 17:44N 47°12' W 003°54'1 3.7
2018-Jun-19 17:27N 47°11' W 003°54'2 3.8
2018-Jun-19 17:00N 47°09' W 003°53'1 2.9
2018-Jun-19 16:30N 47°08' W 003°53'2 3.6
2018-Jun-19 15:50N 47°05' W 003°54'2 1.5
2018-Jun-19 14:47N 47°05' W 003°52'1 2.9
2018-Jun-19 14:20N 47°06' W 003°53'1 3.1
2018-Jun-19 13:59N 47°05' W 003°54'7 3.3
2018-Jun-19 11:56N 47°05' W 003°44'1 2.5
2018-Jun-19 11:30N 47°05' W 003°45'1 2.9
2018-Jun-19 11:00N 47°04' W 003°46'1 2.3
2018-Jun-19 10:28N 47°03' W 003°45'2 3.4
2018-Jun-19 09:59N 47°05' W 003°46'1 1.7
2018-Jun-19 09:08N 47°03' W 003°47'0 3.8
2018-Jun-19 09:00N 47°04' W 003°47'3 3.5
2018-Jun-19 08:12N 47°06' W 003°46'1 2.5
2018-Jun-19 07:52N 47°07' W 003°47'1 3.6
2018-Jun-19 07:30N 47°08' W 003°48'6 3.2
2018-Jun-19 05:31N 47°14' W 003°45'0 3.5
2018-Jun-19 05:30N 47°14' W 003°45'5 3.5
2018-Jun-19 04:05N 47°18' W 003°41'4 8.2
2018-Jun-19 03:39N 47°21' W 003°38'3 8.6
2018-Jun-19 03:18N 47°23' W 003°35'3 8.9
2018-Jun-19 02:59N 47°25' W 003°32'4 9.2
2018-Jun-19 02:30N 47°29' W 003°28'5 9.0
2018-Jun-19 02:00N 47°33' W 003°24'4 8.8
2018-Jun-19 01:30N 47°37' W 003°22'5 9.1
2018-Jun-19 01:00N 47°41' W 003°22'2 4.9
2018-Jun-19 00:30N 47°44' W 003°22'0 0.0
2018-Jun-19 00:00N 47°44' W 003°22'0 0.0
2018-Jun-18 23:30N 47°44' W 003°22'0 0.0
2018-Jun-18 23:00N 47°44' W 003°22'0 0.0
2018-Jun-18 22:30N 47°44' W 003°22'0 0.0
2018-Jun-18 22:00N 47°44' W 003°22'0 0.0
2018-Jun-18 21:30N 47°44' W 003°22'0 0.0
2018-Jun-18 21:00N 47°44' W 003°22'0 0.0
2018-Jun-18 20:30N 47°44' W 003°22'0 0.0
2018-Jun-18 20:00N 47°44' W 003°22'0 0.0
2018-Jun-18 19:30N 47°44' W 003°22'0 0.0
2018-Jun-18 19:01N 47°44' W 003°22'0 0.0
2018-Jun-18 18:30N 47°44' W 003°22'0 0.0
2018-Jun-18 18:00N 47°44' W 003°22'0 0.0
2018-Jun-18 17:31N 47°44' W 003°22'0 0.0
2018-Jun-18 17:00N 47°44' W 003°22'0 0.0
2018-Jun-18 16:30N 47°44' W 003°22'0 0.0
2018-Jun-18 16:00N 47°44' W 003°22'0 0.0
2018-Jun-18 15:30N 47°44' W 003°22'0 0.0
2018-Jun-18 15:00N 47°44' W 003°22'0 0.0
2018-Jun-18 14:30N 47°44' W 003°22'0 0.0
2018-Jun-18 14:00N 47°44' W 003°22'0 0.0
2018-Jun-18 13:30N 47°44' W 003°22'0 0.0
2018-Jun-18 13:00N 47°44' W 003°22'0 0.0
2018-Jun-18 12:30N 47°44' W 003°22'0 0.0
2018-Jun-18 12:00N 47°44' W 003°22'0 0.0
2018-Jun-18 11:30N 47°44' W 003°22'0 0.0
2018-Jun-18 11:00N 47°44' W 003°22'0 0.0
2018-Jun-18 10:30N 47°44' W 003°22'0 0.0
2018-Jun-18 10:00N 47°44' W 003°22'0 0.0
2018-Jun-18 09:30N 47°44' W 003°22'0 0.0
2018-Jun-18 09:00N 47°44' W 003°22'0 0.0
2018-Jun-18 08:30N 47°44' W 003°22'0 0.0
2018-Jun-18 08:00N 47°44' W 003°22'0 0.0
2018-Jun-18 07:30N 47°44' W 003°22'0 0.0
2018-Jun-18 07:00N 47°44' W 003°22'0 0.0
2018-Jun-18 06:30N 47°44' W 003°22'0 0.0
2018-Jun-18 06:00N 47°44' W 003°22'0 0.0
2018-Jun-18 05:30N 47°44' W 003°22'0 0.0
2018-Jun-18 05:00N 47°44' W 003°22'0 0.0
2018-Jun-18 04:30N 47°44' W 003°22'0 0.0
2018-Jun-18 04:00N 47°44' W 003°22'0 0.0
2018-Jun-18 03:30N 47°44' W 003°22'0 0.0
2018-Jun-18 03:00N 47°44' W 003°22'0 0.0
2018-Jun-18 02:31N 47°44' W 003°22'0 0.0
2018-Jun-18 02:00N 47°44' W 003°22'0 0.0
2018-Jun-18 01:30N 47°44' W 003°22'0 0.0
2018-Jun-18 01:00N 47°44' W 003°22'0 0.0
2018-Jun-18 00:30N 47°44' W 003°22'0 0.0
2018-Jun-18 00:00N 47°44' W 003°22'0 0.0
2018-Jun-17 23:30N 47°44' W 003°22'0 0.0
2018-Jun-17 23:00N 47°44' W 003°22'0 0.0
2018-Jun-17 22:30N 47°44' W 003°22'0 0.0
2018-Jun-17 22:00N 47°44' W 003°22'0 0.0
2018-Jun-17 21:30N 47°44' W 003°22'0 0.0
2018-Jun-17 21:00N 47°44' W 003°22'0 0.0
2018-Jun-17 20:30N 47°44' W 003°22'0 0.0
2018-Jun-17 20:00N 47°44' W 003°22'0 0.0
2018-Jun-17 19:30N 47°44' W 003°22'0 0.0
2018-Jun-17 19:00N 47°44' W 003°22'0 0.0
2018-Jun-17 18:30N 47°44' W 003°22'0 0.0
2018-Jun-17 18:00N 47°44' W 003°22'0 0.0
2018-Jun-17 17:30N 47°44' W 003°22'0 0.0
2018-Jun-17 17:01N 47°44' W 003°22'0 0.0
2018-Jun-17 16:30N 47°44' W 003°22'0 0.0
2018-Jun-17 16:00N 47°44' W 003°22'0 0.0
2018-Jun-17 15:31N 47°44' W 003°22'0 0.0
2018-Jun-17 15:00N 47°44' W 003°22'0 0.0
2018-Jun-17 14:30N 47°44' W 003°22'0 0.0
2018-Jun-17 14:00N 47°44' W 003°22'0 0.0
2018-Jun-17 13:30N 47°44' W 003°22'0 0.0
2018-Jun-17 13:00N 47°44' W 003°22'0 0.0
2018-Jun-17 12:30N 47°44' W 003°22'0 0.0
2018-Jun-17 12:01N 47°44' W 003°22'0 0.0
2018-Jun-17 11:30N 47°44' W 003°22'0 0.0
2018-Jun-17 11:00N 47°44' W 003°22'0 0.0
2018-Jun-17 10:30N 47°44' W 003°22'0 0.0
2018-Jun-17 10:00N 47°44' W 003°22'0 0.0
2018-Jun-17 09:30N 47°44' W 003°22'0 0.0
2018-Jun-17 09:00N 47°44' W 003°22'0 0.0
2018-Jun-17 08:30N 47°44' W 003°22'0 0.0
2018-Jun-17 08:01N 47°44' W 003°22'0 0.0
2018-Jun-17 07:31N 47°44' W 003°22'0 0.0
2018-Jun-17 07:00N 47°44' W 003°22'0 0.0
2018-Jun-17 06:31N 47°44' W 003°22'0 0.0
2018-Jun-17 06:00N 47°44' W 003°22'0 0.0
2018-Jun-17 05:30N 47°44' W 003°22'0 0.0
2018-Jun-17 05:00N 47°44' W 003°22'0 0.0
2018-Jun-17 04:30N 47°44' W 003°22'0 0.0
2018-Jun-17 04:00N 47°44' W 003°22'0 0.0
2018-Jun-17 03:31N 47°44' W 003°22'0 0.0
2018-Jun-17 03:00N 47°44' W 003°22'0 0.0
2018-Jun-17 02:30N 47°44' W 003°22'0 0.0
2018-Jun-17 02:00N 47°44' W 003°22'0 0.0
2018-Jun-17 01:31N 47°44' W 003°22'0 0.0
2018-Jun-17 01:01N 47°44' W 003°22'0 0.0
2018-Jun-17 00:30N 47°44' W 003°22'0 0.0
2018-Jun-17 00:00N 47°44' W 003°22'0 0.0
2018-Jun-16 23:31N 47°44' W 003°22'0 0.0
2018-Jun-16 23:00N 47°44' W 003°22'0 0.0
2018-Jun-16 22:31N 47°44' W 003°22'0 0.0
2018-Jun-16 22:00N 47°44' W 003°22'0 0.0
2018-Jun-16 21:30N 47°44' W 003°22'0 0.0
2018-Jun-16 21:00N 47°44' W 003°22'0 0.0
2018-Jun-16 20:31N 47°44' W 003°22'0 0.0
2018-Jun-16 20:00N 47°44' W 003°22'0 0.0
2018-Jun-16 19:30N 47°44' W 003°22'0 0.0
2018-Jun-16 19:00N 47°44' W 003°22'0 0.0
2018-Jun-16 18:30N 47°44' W 003°22'0 0.0
2018-Jun-16 18:00N 47°44' W 003°22'0 0.0
2018-Jun-16 17:31N 47°44' W 003°22'0 0.0
2018-Jun-16 17:00N 47°44' W 003°22'0 0.0
2018-Jun-16 16:30N 47°44' W 003°22'0 0.0
2018-Jun-16 16:00N 47°44' W 003°22'0 0.0
2018-Jun-16 15:30N 47°44' W 003°22'0 0.0
2018-Jun-16 15:01N 47°44' W 003°22'0 0.0
2018-Jun-16 14:30N 47°44' W 003°22'0 0.0
2018-Jun-16 14:00N 47°44' W 003°22'0 0.0
2018-Jun-16 13:30N 47°44' W 003°22'0 0.0
2018-Jun-16 13:00N 47°44' W 003°22'0 0.0
2018-Jun-16 12:30N 47°44' W 003°22'0 0.0
2018-Jun-16 12:00N 47°44' W 003°22'0 0.0
2018-Jun-16 11:30N 47°44' W 003°22'0 0.0
2018-Jun-16 11:00N 47°44' W 003°22'0 0.0
2018-Jun-16 10:31N 47°44' W 003°22'0 0.0
2018-Jun-16 10:00N 47°44' W 003°22'0 0.0
2018-Jun-16 09:30N 47°44' W 003°22'0 0.0
2018-Jun-16 09:00N 47°44' W 003°22'0 0.0
2018-Jun-16 08:30N 47°44' W 003°22'0 0.0
2018-Jun-16 08:00N 47°44' W 003°22'0 0.0
2018-Jun-16 07:30N 47°44' W 003°22'0 0.0
2018-Jun-16 07:00N 47°44' W 003°22'0 0.0
2018-Jun-16 06:30N 47°44' W 003°22'0 0.0
2018-Jun-16 06:00N 47°44' W 003°22'0 0.0
2018-Jun-16 05:30N 47°44' W 003°22'0 0.0
2018-Jun-16 05:00N 47°44' W 003°22'0 0.0
2018-Jun-16 04:30N 47°44' W 003°22'0 0.0
2018-Jun-16 04:01N 47°44' W 003°22'0 0.0
2018-Jun-16 03:30N 47°44' W 003°22'0 0.0
2018-Jun-16 03:01N 47°44' W 003°22'0 0.0
2018-Jun-16 02:31N 47°44' W 003°22'0 0.0
2018-Jun-16 02:00N 47°44' W 003°22'0 0.0
2018-Jun-16 01:30N 47°44' W 003°22'0 0.0
2018-Jun-16 01:01N 47°44' W 003°22'0 0.0
2018-Jun-16 00:30N 47°44' W 003°22'0 0.0
2018-Jun-16 00:00N 47°44' W 003°22'0 0.0
2018-Jun-15 23:30N 47°44' W 003°22'0 0.0
2018-Jun-15 23:01N 47°44' W 003°22'0 0.0
2018-Jun-15 22:30N 47°44' W 003°22'0 0.0
2018-Jun-15 22:00N 47°44' W 003°22'0 0.0
2018-Jun-15 21:30N 47°44' W 003°22'0 0.0
2018-Jun-15 21:00N 47°44' W 003°22'0 0.0
2018-Jun-15 20:30N 47°44' W 003°22'0 0.0
2018-Jun-15 20:00N 47°44' W 003°22'0 0.0
2018-Jun-15 19:31N 47°44' W 003°22'0 0.0
2018-Jun-15 19:00N 47°44' W 003°22'0 0.0
2018-Jun-15 18:31N 47°44' W 003°22'0 0.0
2018-Jun-15 18:00N 47°44' W 003°22'0 0.0
2018-Jun-15 17:30N 47°44' W 003°22'0 0.0
2018-Jun-15 17:00N 47°44' W 003°22'0 0.1
2018-Jun-15 16:30N 47°44' W 003°22'4 8.9
2018-Jun-15 16:00N 47°39' W 003°22'4 8.2
2018-Jun-15 15:30N 47°35' W 003°24'5 9.3
2018-Jun-15 15:00N 47°32' W 003°28'5 9.1
2018-Jun-15 14:30N 47°27' W 003°31'5 9.1
2018-Jun-15 13:59N 47°23' W 003°33'14 2.2
2018-Jun-15 07:26N 47°10' W 003°41'1 3.1
2018-Jun-15 07:00N 47°10' W 003°43'  

Dump ship's entire track history